Open Full Screen Window  High Contrast Mode
Wind Gusting 21 knots
15
May 29, 2017 8:05 AM CDT
Weather Information
Wind Direction
  310 °
Wind Speed
  15 kt (17 mph)
Wind Gust
  21 kt (24 mph)
Altimeter
29.95 in
Visibility
10 SM
Temperature
10° C
50° F
Dewpoint
09° C
48° F
Humidity
94%
1hr Rain Fall
00.00 in.
24hr Rain Fall
00.00 in.
Sky Condition
Clear
VFR

METAR KMDS 291305Z AUTO 31015G21KT 10SM CLR 10/09 A2995 RMK AO2

*Background is not an actual portrayal of the airport.